createdAt,value
2023-02-18T00:02:33.033Z,3.33
2023-02-18T00:07:39.583Z,3.35
2023-02-18T00:12:42.157Z,3.05
2023-02-18T00:17:44.257Z,3.37
2023-02-18T00:22:46.327Z,2.35
2023-02-18T00:27:48.457Z,3.08
2023-02-18T00:32:50.596Z,2.65
2023-02-18T00:37:53.212Z,2.75
2023-02-18T00:42:55.329Z,2.60
2023-02-18T00:47:57.524Z,2.60
2023-02-18T00:52:59.635Z,1.98
2023-02-18T00:58:01.786Z,2.03
2023-02-18T01:03:06.302Z,2.28
2023-02-18T01:08:10.646Z,2.10
2023-02-18T01:13:14.207Z,1.70
2023-02-18T01:18:16.841Z,1.90
2023-02-18T01:23:19.375Z,1.25
2023-02-18T01:28:25.248Z,1.50
2023-02-18T01:33:27.429Z,1.50
2023-02-18T01:38:29.549Z,1.20
2023-02-18T01:43:32.344Z,1.25
2023-02-18T01:48:39.506Z,1.27
2023-02-18T01:54:06.134Z,1.30
2023-02-18T01:59:18.054Z,1.20
2023-02-18T02:04:21.144Z,1.20
2023-02-18T02:09:26.670Z,1.00
2023-02-18T02:14:40.856Z,1.17
2023-02-18T02:20:01.015Z,0.90
2023-02-18T02:25:40.250Z,1.13
2023-02-18T02:30:47.702Z,1.12
2023-02-18T02:36:00.045Z,0.88
2023-02-18T02:41:04.780Z,1.08
2023-02-18T02:46:18.115Z,0.93
2023-02-18T02:51:38.049Z,1.13
2023-02-18T02:56:40.604Z,1.10
2023-02-18T03:02:12.753Z,1.00
2023-02-18T03:07:37.769Z,1.15
2023-02-18T03:13:00.618Z,1.08
2023-02-18T03:18:14.827Z,1.30
2023-02-18T03:23:20.853Z,1.40
2023-02-18T03:28:28.648Z,1.20
2023-02-18T03:33:37.612Z,1.00
2023-02-18T03:38:49.258Z,1.30
2023-02-18T03:43:52.413Z,1.00
2023-02-18T03:48:54.625Z,1.00
2023-02-18T03:53:56.793Z,1.10
2023-02-18T03:58:59.614Z,1.02
2023-02-18T04:04:03.199Z,1.00
2023-02-18T04:09:09.143Z,0.97
2023-02-18T04:14:14.305Z,1.30
2023-02-18T04:19:16.476Z,1.17
2023-02-18T04:24:18.718Z,1.02
2023-02-18T04:29:21.212Z,0.90
2023-02-18T04:34:23.403Z,1.10
2023-02-18T04:39:25.666Z,0.95
2023-02-18T04:44:27.829Z,1.00
2023-02-18T04:49:29.989Z,0.90
2023-02-18T04:54:32.126Z,0.93
2023-02-18T04:59:34.295Z,1.10
2023-02-18T05:04:36.522Z,1.00
2023-02-18T05:09:38.662Z,0.90
2023-02-18T05:14:40.971Z,1.00
2023-02-18T05:19:43.150Z,0.90
2023-02-18T05:24:45.241Z,1.27
2023-02-18T05:29:47.412Z,1.20
2023-02-18T05:34:49.716Z,1.20
2023-02-18T05:39:51.876Z,1.10
2023-02-18T05:44:53.978Z,1.10
2023-02-18T05:49:56.235Z,1.20
2023-02-18T05:54:59.418Z,1.20
2023-02-18T06:00:01.585Z,1.40
2023-02-18T06:05:04.719Z,1.40
2023-02-18T06:10:07.586Z,1.30
2023-02-18T06:15:09.827Z,1.30
2023-02-18T06:20:12.477Z,1.42
2023-02-18T06:25:14.860Z,1.40
2023-02-18T06:30:17.222Z,1.27
2023-02-18T06:35:19.363Z,1.20
2023-02-18T06:40:21.575Z,1.03
2023-02-18T06:45:23.706Z,1.30
2023-02-18T06:50:25.791Z,1.08
2023-02-18T06:55:28.143Z,0.95
2023-02-18T07:00:30.535Z,1.17
2023-02-18T07:05:33.237Z,1.10
2023-02-18T07:10:35.532Z,1.00
2023-02-18T07:15:37.763Z,0.98
2023-02-18T07:20:40.161Z,0.98
2023-02-18T07:25:42.397Z,0.90
2023-02-18T07:30:44.525Z,1.30
2023-02-18T07:35:46.644Z,1.10
2023-02-18T07:40:48.770Z,1.10
2023-02-18T07:45:51.287Z,1.20
2023-02-18T07:50:53.446Z,0.90
2023-02-18T07:56:00.180Z,0.90
2023-02-18T08:01:07.320Z,1.05
2023-02-18T08:06:35.432Z,0.80
2023-02-18T08:11:37.776Z,1.00
2023-02-18T08:16:40.170Z,0.90
2023-02-18T08:21:42.430Z,0.80
2023-02-18T08:26:59.394Z,0.75
2023-02-18T08:32:02.856Z,1.00
2023-02-18T08:37:05.660Z,1.05
2023-02-18T08:42:07.871Z,1.30
2023-02-18T08:48:16.969Z,1.30
2023-02-18T08:52:32.054Z,1.10
2023-02-18T08:57:34.394Z,1.00
2023-02-18T09:02:36.538Z,1.00
2023-02-18T09:07:41.713Z,0.98
2023-02-18T09:12:43.932Z,0.97
2023-02-18T09:17:46.326Z,1.00
2023-02-18T09:22:49.041Z,1.02
2023-02-18T09:27:51.163Z,1.10
2023-02-18T09:32:53.285Z,1.17
2023-02-18T09:37:55.426Z,1.13
2023-02-18T09:42:59.077Z,1.05
2023-02-18T09:48:03.889Z,1.30
2023-02-18T09:53:06.112Z,1.37
2023-02-18T09:58:21.008Z,1.02
2023-02-18T10:03:26.536Z,1.30
2023-02-18T10:08:34.381Z,1.40
2023-02-18T10:13:36.600Z,1.30
2023-02-18T10:18:49.421Z,1.20
2023-02-18T10:24:05.830Z,1.10
2023-02-18T10:29:19.406Z,1.37
2023-02-18T10:34:52.629Z,1.10
2023-02-18T10:40:17.925Z,1.40
2023-02-18T10:45:30.227Z,1.08
2023-02-18T10:50:37.889Z,1.20
2023-02-18T10:55:43.816Z,1.30
2023-02-18T11:00:49.885Z,1.30
2023-02-18T11:05:55.787Z,1.50
2023-02-18T11:10:58.689Z,1.50
2023-02-18T11:16:05.057Z,1.40
2023-02-18T11:21:30.350Z,1.50
2023-02-18T11:26:35.343Z,1.33
2023-02-18T11:31:45.206Z,1.75
2023-02-18T11:36:49.402Z,1.90
2023-02-18T11:41:58.830Z,1.80
2023-02-18T11:47:05.279Z,2.10
2023-02-18T11:52:25.796Z,1.90
2023-02-18T11:57:29.041Z,2.25
2023-02-18T12:02:34.573Z,2.60
2023-02-18T12:07:51.200Z,2.90
2023-02-18T12:13:20.344Z,3.07
2023-02-18T12:19:07.156Z,2.65
2023-02-18T12:24:42.680Z,2.65
2023-02-18T12:30:17.262Z,2.77
2023-02-18T12:35:31.081Z,2.08
2023-02-18T12:40:39.085Z,2.20
2023-02-18T12:46:13.206Z,1.98
2023-02-18T12:51:44.855Z,1.37
2023-02-18T12:56:58.371Z,1.63
2023-02-18T13:02:28.881Z,1.27
2023-02-18T13:07:50.096Z,1.70
2023-02-18T13:13:18.441Z,1.62
2023-02-18T13:18:30.320Z,1.42
2023-02-18T13:23:37.824Z,1.57
2023-02-18T13:28:52.146Z,1.60
2023-02-18T13:34:12.040Z,1.87
2023-02-18T13:39:20.693Z,1.52
2023-02-18T13:44:23.049Z,1.98
2023-02-18T13:49:32.137Z,1.90
2023-02-18T13:54:46.220Z,1.87
2023-02-18T13:59:48.280Z,1.70
2023-02-18T14:04:53.035Z,1.48
2023-02-18T14:09:57.705Z,1.23
2023-02-18T14:14:59.946Z,1.13
2023-02-18T14:20:02.027Z,1.12
2023-02-18T14:25:11.237Z,1.20
2023-02-18T14:30:24.838Z,0.90
2023-02-18T14:36:06.345Z,1.33
2023-02-18T14:41:23.456Z,1.30
2023-02-18T14:47:00.006Z,1.48
2023-02-18T14:52:05.607Z,1.27
2023-02-18T14:57:16.756Z,2.08
2023-02-18T15:02:27.416Z,1.60
2023-02-18T15:07:29.612Z,1.93
2023-02-18T15:12:32.197Z,1.73
2023-02-18T15:17:34.558Z,1.80
2023-02-18T15:22:36.980Z,1.20
2023-02-18T15:27:44.462Z,15.30
2023-02-18T15:32:55.086Z,16.50
2023-02-18T15:37:59.516Z,17.70
2023-02-18T15:43:04.915Z,18.10
2023-02-18T15:48:07.671Z,20.00
2023-02-18T15:53:16.329Z,20.45
2023-02-18T15:58:31.130Z,22.35
2023-02-18T16:03:46.940Z,21.83
2023-02-18T16:09:01.092Z,21.37
2023-02-18T16:14:06.247Z,21.70
2023-02-18T16:19:24.766Z,23.10
2023-02-18T16:24:33.077Z,21.73
2023-02-18T16:29:40.366Z,22.73
2023-02-18T16:34:42.587Z,23.60
2023-02-18T16:39:44.859Z,21.98
2023-02-18T16:44:48.198Z,20.90
2023-02-18T16:49:52.932Z,22.35
2023-02-18T16:54:55.509Z,23.65
2023-02-18T16:59:58.919Z,22.87
2023-02-18T17:05:01.096Z,22.65
2023-02-18T17:10:03.364Z,21.62
2023-02-18T17:15:17.101Z,22.27
2023-02-18T17:20:19.607Z,22.77
2023-02-18T17:25:25.863Z,22.30
2023-02-18T17:30:29.283Z,21.95
2023-02-18T17:35:31.976Z,22.30
2023-02-18T17:40:34.175Z,22.62
2023-02-18T17:45:40.142Z,22.55
2023-02-18T17:50:42.803Z,21.90
2023-02-18T17:55:46.862Z,23.15
2023-02-18T18:00:57.321Z,21.48
2023-02-18T18:05:59.445Z,22.58
2023-02-18T18:11:02.124Z,22.42
2023-02-18T18:16:05.548Z,24.43
2023-02-18T18:21:19.818Z,23.87
2023-02-18T18:26:21.984Z,23.67
2023-02-18T18:31:24.366Z,25.12
2023-02-18T18:36:26.647Z,24.55
2023-02-18T18:41:28.843Z,24.40
2023-02-18T18:46:31.157Z,23.70
2023-02-18T18:51:36.146Z,25.65
2023-02-18T18:56:38.506Z,23.85
2023-02-18T19:01:40.879Z,21.23
2023-02-18T19:06:43.038Z,22.83
2023-02-18T19:11:45.194Z,25.20
2023-02-18T19:16:47.912Z,23.08
2023-02-18T19:21:50.351Z,20.27
2023-02-18T19:26:52.483Z,20.00
2023-02-18T19:32:01.393Z,20.40
2023-02-18T19:37:03.541Z,21.33
2023-02-18T19:42:05.677Z,18.92
2023-02-18T19:47:07.837Z,7.93
2023-02-18T19:52:09.931Z,8.82
2023-02-18T19:57:13.019Z,10.63
2023-02-18T20:02:20.629Z,10.73
2023-02-18T20:07:24.053Z,10.57
2023-02-18T20:12:28.997Z,10.32
2023-02-18T20:17:32.778Z,9.63
2023-02-18T20:22:34.934Z,9.93
2023-02-18T20:27:42.953Z,8.68
2023-02-18T20:32:50.516Z,9.77
2023-02-18T20:37:52.968Z,10.38
2023-02-18T20:42:55.703Z,12.27
2023-02-18T20:47:57.864Z,12.20
2023-02-18T20:53:00.143Z,10.40
2023-02-18T20:58:02.497Z,11.65
2023-02-18T21:03:04.732Z,11.88
2023-02-18T21:08:06.908Z,10.18
2023-02-18T21:13:09.299Z,8.93
2023-02-18T21:18:12.141Z,9.45
2023-02-18T21:23:15.102Z,6.97
2023-02-18T21:28:20.247Z,7.50
2023-02-18T21:33:22.494Z,6.97
2023-02-18T21:38:24.626Z,5.70
2023-02-18T21:43:26.824Z,4.20
2023-02-18T21:48:47.684Z,4.87
2023-02-18T21:53:49.840Z,3.40
2023-02-18T21:58:54.120Z,2.95
2023-02-18T22:03:56.221Z,2.47
2023-02-18T22:09:01.676Z,3.22
2023-02-18T22:14:07.135Z,3.05
2023-02-18T22:19:11.829Z,2.75
2023-02-18T22:24:15.246Z,2.80
2023-02-18T22:29:19.643Z,2.90
2023-02-18T22:34:22.674Z,2.58
2023-02-18T22:39:24.898Z,2.60
2023-02-18T22:44:27.502Z,2.03
2023-02-18T22:49:31.850Z,2.28
2023-02-18T22:54:34.140Z,2.07
2023-02-18T22:59:36.347Z,1.65
2023-02-18T23:04:39.162Z,1.90
2023-02-18T23:09:41.350Z,1.80
2023-02-18T23:14:43.759Z,1.60
2023-02-18T23:19:54.143Z,2.00
2023-02-18T23:24:56.737Z,1.60
2023-02-18T23:29:58.962Z,1.70
2023-02-18T23:35:01.293Z,1.80
2023-02-18T23:40:03.610Z,1.48
2023-02-18T23:45:05.968Z,1.70
2023-02-18T23:50:08.379Z,1.62
2023-02-18T23:55:12.784Z,1.40
